createdAt,value
2022-10-10T00:00:52.925Z,7.70
2022-10-10T00:01:55.395Z,7.70
2022-10-10T00:02:58.820Z,7.70
2022-10-10T00:04:03.155Z,7.80
2022-10-10T00:05:06.059Z,7.80
2022-10-10T00:06:10.850Z,7.70
2022-10-10T00:07:14.241Z,7.70
2022-10-10T00:08:16.609Z,7.70
2022-10-10T00:09:20.014Z,7.70
2022-10-10T00:10:22.479Z,7.70
2022-10-10T00:11:26.667Z,7.70
2022-10-10T00:12:29.155Z,7.70
2022-10-10T00:13:33.015Z,7.70
2022-10-10T00:14:35.410Z,7.70
2022-10-10T00:15:40.066Z,7.70
2022-10-10T00:16:42.803Z,7.70
2022-10-10T00:17:46.291Z,8.30
2022-10-10T00:18:49.264Z,7.70
2022-10-10T00:19:53.120Z,7.70
2022-10-10T00:20:55.480Z,7.70
2022-10-10T00:21:59.061Z,7.60
2022-10-10T00:23:01.507Z,7.60
2022-10-10T00:24:05.132Z,6.20
2022-10-10T00:25:09.708Z,7.60
2022-10-10T00:26:18.535Z,7.60
2022-10-10T00:27:21.998Z,7.60
2022-10-10T00:28:25.767Z,7.60
2022-10-10T00:29:28.265Z,7.50
2022-10-10T00:30:31.997Z,7.50
2022-10-10T00:31:35.701Z,7.50
2022-10-10T00:32:39.568Z,7.40
2022-10-10T00:33:42.074Z,7.50
2022-10-10T00:34:45.570Z,7.50
2022-10-10T00:35:48.661Z,7.50
2022-10-10T00:36:52.089Z,7.50
2022-10-10T00:37:54.527Z,7.40
2022-10-10T00:38:57.812Z,7.40
2022-10-10T00:40:00.173Z,7.50
2022-10-10T00:41:04.258Z,7.40
2022-10-10T00:42:06.562Z,7.40
2022-10-10T00:43:11.699Z,7.40
2022-10-10T00:44:16.164Z,7.40
2022-10-10T00:45:27.012Z,7.40
2022-10-10T00:46:36.657Z,7.50
2022-10-10T00:47:40.652Z,7.40
2022-10-10T00:48:47.043Z,7.40
2022-10-10T00:49:49.465Z,7.40
2022-10-10T00:50:58.312Z,7.50
2022-10-10T00:52:01.366Z,7.40
2022-10-10T00:53:08.329Z,7.40
2022-10-10T00:54:15.749Z,7.40
2022-10-10T00:55:20.365Z,6.10
2022-10-10T00:56:29.523Z,7.40
2022-10-10T00:57:32.191Z,7.70
2022-10-10T00:58:38.818Z,7.30
2022-10-10T00:59:44.405Z,7.30
2022-10-10T01:00:51.036Z,7.30
2022-10-10T01:01:53.351Z,7.70
2022-10-10T01:02:58.132Z,7.30
2022-10-10T01:04:02.679Z,7.30
2022-10-10T01:05:06.847Z,7.30
2022-10-10T01:06:09.668Z,7.30
2022-10-10T01:07:17.023Z,5.90
2022-10-10T01:08:21.261Z,7.30
2022-10-10T01:09:24.825Z,7.30
2022-10-10T01:10:27.522Z,7.20
2022-10-10T01:11:47.073Z,7.20
2022-10-10T01:13:03.094Z,7.20
2022-10-10T01:14:19.451Z,7.30
2022-10-10T01:15:30.556Z,7.20
2022-10-10T01:16:45.322Z,7.30
2022-10-10T01:17:54.351Z,7.30
2022-10-10T01:19:15.768Z,7.30
2022-10-10T01:20:51.403Z,7.30
2022-10-10T01:22:07.493Z,7.30
2022-10-10T01:23:42.481Z,8.10
2022-10-10T01:25:05.576Z,7.30
2022-10-10T01:26:32.509Z,7.40
2022-10-10T01:27:43.001Z,7.40
2022-10-10T01:28:56.758Z,7.40
2022-10-10T01:30:06.129Z,7.40
2022-10-10T01:31:13.477Z,7.40
2022-10-10T01:32:23.850Z,7.40
2022-10-10T01:33:37.217Z,7.40
2022-10-10T01:35:04.695Z,9.30
2022-10-10T01:36:19.987Z,8.90
2022-10-10T01:37:35.146Z,7.40
2022-10-10T01:38:50.717Z,7.40
2022-10-10T01:39:59.718Z,7.40
2022-10-10T01:41:10.564Z,7.30
2022-10-10T01:42:23.134Z,7.40
2022-10-10T01:43:27.284Z,7.30
2022-10-10T01:44:31.003Z,7.30
2022-10-10T01:45:34.361Z,7.20
2022-10-10T01:46:36.747Z,7.30
2022-10-10T01:47:40.378Z,7.30
2022-10-10T01:48:47.952Z,7.20
2022-10-10T01:49:56.983Z,7.20
2022-10-10T01:51:19.391Z,7.20
2022-10-10T01:52:37.208Z,7.30
2022-10-10T01:53:49.907Z,7.30
2022-10-10T01:55:08.828Z,7.30
2022-10-10T01:56:26.085Z,7.30
2022-10-10T01:57:42.709Z,7.30
2022-10-10T01:59:11.568Z,8.30
2022-10-10T02:00:18.452Z,7.20
2022-10-10T02:01:35.732Z,7.30
2022-10-10T02:02:48.396Z,7.30
2022-10-10T02:03:59.520Z,7.30
2022-10-10T02:05:11.144Z,7.40
2022-10-10T02:06:21.828Z,7.40
2022-10-10T02:07:31.872Z,7.40
2022-10-10T02:08:38.554Z,7.40
2022-10-10T02:09:45.461Z,7.40
2022-10-10T02:10:53.701Z,7.40
2022-10-10T02:11:59.291Z,7.40
2022-10-10T02:13:05.785Z,7.40
2022-10-10T02:14:15.330Z,7.40
2022-10-10T02:15:25.068Z,7.40
2022-10-10T02:16:37.585Z,7.40
2022-10-10T02:17:44.429Z,7.40
2022-10-10T02:18:50.271Z,7.30
2022-10-10T02:19:57.882Z,7.30
2022-10-10T02:21:06.580Z,7.30
2022-10-10T02:22:11.836Z,7.30
2022-10-10T02:23:19.815Z,7.30
2022-10-10T02:24:25.990Z,7.30
2022-10-10T02:25:33.418Z,7.30
2022-10-10T02:26:39.515Z,7.30
2022-10-10T02:27:48.933Z,7.20
2022-10-10T02:28:58.131Z,7.20
2022-10-10T02:30:05.723Z,7.20
2022-10-10T02:31:16.790Z,7.20
2022-10-10T02:32:28.814Z,7.20
2022-10-10T02:33:43.222Z,7.20
2022-10-10T02:34:53.968Z,7.20
2022-10-10T02:35:59.206Z,7.20
2022-10-10T02:37:06.593Z,7.20
2022-10-10T02:38:15.496Z,7.20
2022-10-10T02:39:22.372Z,7.20
2022-10-10T02:40:31.898Z,7.20
2022-10-10T02:41:37.482Z,7.10
2022-10-10T02:42:46.347Z,7.10
2022-10-10T02:43:52.094Z,7.10
2022-10-10T02:44:59.627Z,7.10
2022-10-10T02:46:06.186Z,7.10
2022-10-10T02:47:11.515Z,7.10
2022-10-10T02:48:13.839Z,7.10
2022-10-10T02:49:24.799Z,7.10
2022-10-10T02:50:30.536Z,7.10
2022-10-10T02:51:34.140Z,7.10
2022-10-10T02:52:36.735Z,7.10
2022-10-10T02:53:40.696Z,7.10
2022-10-10T02:54:43.266Z,7.10
2022-10-10T02:55:46.718Z,7.10
2022-10-10T02:56:49.215Z,7.10
2022-10-10T02:57:53.326Z,6.20
2022-10-10T02:58:55.794Z,7.00
2022-10-10T02:59:59.178Z,7.00
2022-10-10T03:01:01.859Z,7.00
2022-10-10T03:02:06.458Z,7.00
2022-10-10T03:03:10.866Z,7.10
2022-10-10T03:04:14.761Z,7.10
2022-10-10T03:05:19.717Z,7.10
2022-10-10T03:06:24.041Z,7.10
2022-10-10T03:07:27.481Z,7.10
2022-10-10T03:08:29.834Z,7.10
2022-10-10T03:09:33.844Z,7.00
2022-10-10T03:10:36.417Z,7.00
2022-10-10T03:11:40.418Z,7.00
2022-10-10T03:12:45.443Z,7.00
2022-10-10T03:13:49.040Z,7.50
2022-10-10T03:14:51.474Z,7.00
2022-10-10T03:15:55.807Z,7.00
2022-10-10T03:16:59.014Z,7.00
2022-10-10T03:18:03.342Z,8.00
2022-10-10T03:19:08.540Z,7.00
2022-10-10T03:20:12.621Z,8.10
2022-10-10T03:21:14.994Z,6.10
2022-10-10T03:22:18.848Z,7.00
2022-10-10T03:23:22.672Z,7.00
2022-10-10T03:24:26.698Z,7.10
2022-10-10T03:25:29.103Z,7.10
2022-10-10T03:26:32.961Z,7.10
2022-10-10T03:27:35.708Z,7.10
2022-10-10T03:28:40.112Z,8.10
2022-10-10T03:29:42.707Z,7.10
2022-10-10T03:30:46.278Z,7.10
2022-10-10T03:31:49.041Z,7.10
2022-10-10T03:32:53.454Z,7.10
2022-10-10T03:33:56.141Z,7.10
2022-10-10T03:35:00.949Z,7.20
2022-10-10T03:36:03.639Z,7.20
2022-10-10T03:37:07.111Z,7.20
2022-10-10T03:38:11.647Z,7.20
2022-10-10T03:39:15.398Z,7.20
2022-10-10T03:40:17.800Z,7.20
2022-10-10T03:41:21.356Z,7.20
2022-10-10T03:42:23.922Z,7.20
2022-10-10T03:43:27.812Z,7.20
2022-10-10T03:44:30.499Z,7.20
2022-10-10T03:45:33.913Z,7.20
2022-10-10T03:46:39.713Z,7.20
2022-10-10T03:47:43.369Z,7.10
2022-10-10T03:48:46.196Z,7.80
2022-10-10T03:49:49.583Z,7.10
2022-10-10T03:50:53.503Z,7.20
2022-10-10T03:51:57.083Z,7.10
2022-10-10T03:52:59.664Z,7.10
2022-10-10T03:54:03.561Z,7.10
2022-10-10T03:55:06.998Z,7.10
2022-10-10T03:56:10.822Z,7.00
2022-10-10T03:57:13.682Z,6.90
2022-10-10T03:58:20.184Z,6.90
2022-10-10T03:59:26.342Z,7.00
2022-10-10T04:00:30.140Z,6.90
2022-10-10T04:01:33.319Z,6.50
2022-10-10T04:02:36.901Z,6.90
2022-10-10T04:03:39.338Z,9.10
2022-10-10T04:04:42.840Z,8.20
2022-10-10T04:05:45.536Z,7.80
2022-10-10T04:06:50.447Z,6.90
2022-10-10T04:07:52.983Z,6.90
2022-10-10T04:08:57.257Z,5.00
2022-10-10T04:10:00.000Z,6.90
2022-10-10T04:11:03.429Z,6.20
2022-10-10T04:12:06.160Z,6.90
2022-10-10T04:13:09.546Z,6.90
2022-10-10T04:14:11.870Z,6.90
2022-10-10T04:15:15.666Z,6.90
2022-10-10T04:16:18.102Z,7.00
2022-10-10T04:17:21.684Z,6.80
2022-10-10T04:18:25.450Z,6.80
2022-10-10T04:19:28.800Z,6.80
2022-10-10T04:20:33.111Z,8.40
2022-10-10T04:21:36.901Z,6.80
2022-10-10T04:22:40.773Z,6.80
2022-10-10T04:23:44.264Z,6.80
2022-10-10T04:24:46.774Z,6.80
2022-10-10T04:25:53.196Z,6.80
2022-10-10T04:26:55.655Z,6.90
2022-10-10T04:28:01.188Z,6.70
2022-10-10T04:29:04.713Z,6.70
2022-10-10T04:30:09.384Z,6.70
2022-10-10T04:31:12.160Z,6.70
2022-10-10T04:32:15.746Z,6.70
2022-10-10T04:33:18.318Z,6.60
2022-10-10T04:34:22.242Z,6.60
2022-10-10T04:35:24.855Z,6.70
2022-10-10T04:36:28.694Z,6.70
2022-10-10T04:37:31.268Z,6.60
2022-10-10T04:38:36.213Z,6.60
2022-10-10T04:39:38.875Z,6.50
2022-10-10T04:40:42.341Z,6.60
2022-10-10T04:41:44.632Z,7.70
2022-10-10T04:42:48.244Z,8.20
2022-10-10T04:43:50.890Z,6.50
2022-10-10T04:44:54.675Z,6.50
2022-10-10T04:45:58.126Z,7.30
2022-10-10T04:47:02.072Z,6.50
2022-10-10T04:48:05.048Z,6.50
2022-10-10T04:49:08.488Z,6.60
2022-10-10T04:50:11.475Z,6.60
2022-10-10T04:51:15.074Z,6.60
2022-10-10T04:52:18.087Z,6.00
2022-10-10T04:53:21.956Z,6.60
2022-10-10T04:54:25.863Z,6.50
2022-10-10T04:55:29.629Z,6.50
2022-10-10T04:56:32.210Z,6.50
2022-10-10T04:57:35.739Z,6.80
2022-10-10T04:58:38.468Z,6.50
2022-10-10T04:59:43.417Z,6.50
2022-10-10T05:00:46.267Z,6.50
2022-10-10T05:01:49.746Z,6.40
2022-10-10T05:02:53.850Z,6.40
2022-10-10T05:03:56.729Z,6.30
2022-10-10T05:05:00.528Z,6.80
2022-10-10T05:06:03.220Z,6.30
2022-10-10T05:07:06.908Z,6.40
2022-10-10T05:08:09.800Z,4.70
2022-10-10T05:09:13.806Z,6.90
2022-10-10T05:10:17.802Z,6.70
2022-10-10T05:11:21.396Z,6.80
2022-10-10T05:12:24.484Z,7.00
2022-10-10T05:13:28.067Z,7.40
2022-10-10T05:14:31.252Z,7.30
2022-10-10T05:15:36.438Z,7.30
2022-10-10T05:16:40.170Z,5.20
2022-10-10T05:17:42.732Z,7.60
2022-10-10T05:18:46.329Z,7.70
2022-10-10T05:19:49.008Z,7.70
2022-10-10T05:20:52.589Z,7.70
2022-10-10T05:21:57.306Z,7.70
2022-10-10T05:23:00.797Z,5.80
2022-10-10T05:24:03.785Z,7.90
2022-10-10T05:25:08.365Z,8.10
2022-10-10T05:26:12.370Z,8.20
2022-10-10T05:27:15.948Z,8.30
2022-10-10T05:28:18.778Z,8.70
2022-10-10T05:29:23.734Z,8.50
2022-10-10T05:30:27.252Z,8.70
2022-10-10T05:31:30.720Z,8.80
2022-10-10T05:32:33.418Z,8.90
2022-10-10T05:33:37.586Z,8.90
2022-10-10T05:34:40.051Z,9.50
2022-10-10T05:35:43.528Z,9.00
2022-10-10T05:36:46.135Z,9.10
2022-10-10T05:37:49.850Z,9.20
2022-10-10T05:38:52.737Z,9.20
2022-10-10T05:39:56.376Z,9.30
2022-10-10T05:40:58.945Z,9.40
2022-10-10T05:42:03.821Z,9.40
2022-10-10T05:43:06.329Z,9.40
2022-10-10T05:44:10.555Z,9.40
2022-10-10T05:45:13.680Z,9.30
2022-10-10T05:46:17.398Z,8.60
2022-10-10T05:47:23.110Z,8.70
2022-10-10T05:48:29.229Z,9.50
2022-10-10T05:49:32.188Z,9.60
2022-10-10T05:50:39.692Z,9.80
2022-10-10T05:51:42.513Z,9.90
2022-10-10T05:52:46.030Z,10.00
2022-10-10T05:53:49.242Z,10.10
2022-10-10T05:54:53.737Z,10.20
2022-10-10T05:55:56.429Z,10.20
2022-10-10T05:57:00.098Z,10.40
2022-10-10T05:58:04.206Z,10.50
2022-10-10T05:59:10.791Z,10.60
2022-10-10T06:00:14.031Z,10.60
2022-10-10T06:01:17.675Z,10.80
2022-10-10T06:02:20.269Z,11.10
2022-10-10T06:03:23.740Z,10.90
2022-10-10T06:04:27.442Z,10.90
2022-10-10T06:05:30.079Z,11.00
2022-10-10T06:06:34.040Z,10.80
2022-10-10T06:08:02.501Z,8.20
2022-10-10T06:09:00.335Z,10.80
2022-10-10T06:10:02.888Z,10.90
2022-10-10T06:11:09.311Z,11.30
2022-10-10T06:12:11.944Z,11.00
2022-10-10T06:13:23.891Z,10.50
2022-10-10T06:14:26.939Z,11.10
2022-10-10T06:15:31.372Z,11.30
2022-10-10T06:16:37.094Z,11.40
2022-10-10T06:17:39.586Z,11.50
2022-10-10T06:18:43.205Z,11.50
2022-10-10T06:19:45.654Z,11.60
2022-10-10T06:20:49.357Z,10.90
2022-10-10T06:21:51.724Z,11.70
2022-10-10T06:22:55.298Z,11.70
2022-10-10T06:23:58.092Z,11.80
2022-10-10T06:25:02.543Z,11.80
2022-10-10T06:26:06.560Z,11.80
2022-10-10T06:27:09.472Z,11.80
2022-10-10T06:28:13.534Z,10.90
2022-10-10T06:29:17.959Z,11.80
2022-10-10T06:30:21.639Z,11.70
2022-10-10T06:31:24.130Z,12.60
2022-10-10T06:32:28.450Z,11.90
2022-10-10T06:33:31.504Z,12.00
2022-10-10T06:34:34.992Z,10.80
2022-10-10T06:35:42.193Z,12.00
2022-10-10T06:36:45.565Z,12.00
2022-10-10T06:37:48.138Z,12.10
2022-10-10T06:38:51.832Z,12.10
2022-10-10T06:39:54.409Z,11.80
2022-10-10T06:41:02.174Z,12.30
2022-10-10T06:42:05.523Z,12.40
2022-10-10T06:43:12.242Z,12.50
2022-10-10T06:44:16.935Z,12.50
2022-10-10T06:45:20.526Z,12.40
2022-10-10T06:46:26.385Z,12.40
2022-10-10T06:47:30.249Z,12.50
2022-10-10T06:48:35.615Z,12.30
2022-10-10T06:49:38.161Z,10.80
2022-10-10T06:50:41.996Z,12.70
2022-10-10T06:51:45.567Z,12.30
2022-10-10T06:52:48.371Z,12.30
2022-10-10T06:53:54.714Z,12.40
2022-10-10T06:54:58.156Z,12.10
2022-10-10T06:56:02.473Z,11.90
2022-10-10T06:57:05.188Z,12.00
2022-10-10T06:58:12.049Z,12.20
2022-10-10T06:59:16.616Z,12.40
2022-10-10T07:00:21.348Z,12.50
2022-10-10T07:01:27.996Z,12.60
2022-10-10T07:02:30.901Z,12.80
2022-10-10T07:03:35.163Z,12.80
2022-10-10T07:04:40.601Z,12.80
2022-10-10T07:05:51.619Z,12.80
2022-10-10T07:06:54.086Z,12.60
2022-10-10T07:07:57.793Z,12.30
2022-10-10T07:09:00.812Z,12.20
2022-10-10T07:10:05.781Z,12.00
2022-10-10T07:11:09.576Z,12.00
2022-10-10T07:12:13.756Z,11.90
2022-10-10T07:13:17.809Z,11.80
2022-10-10T07:14:26.589Z,11.80
2022-10-10T07:15:30.184Z,11.90
2022-10-10T07:16:34.795Z,12.00
2022-10-10T07:17:38.025Z,12.20
2022-10-10T07:18:41.569Z,12.20
2022-10-10T07:19:44.219Z,12.40
2022-10-10T07:20:49.814Z,12.60
2022-10-10T07:21:54.351Z,12.60
2022-10-10T07:22:58.127Z,12.70
2022-10-10T07:24:02.748Z,12.60
2022-10-10T07:25:05.978Z,12.50
2022-10-10T07:26:14.523Z,12.50
2022-10-10T07:27:22.082Z,12.40
2022-10-10T07:28:27.383Z,12.30
2022-10-10T07:29:34.106Z,12.50
2022-10-10T07:30:43.507Z,12.40
2022-10-10T07:31:46.212Z,12.30
2022-10-10T07:32:50.614Z,12.20
2022-10-10T07:33:54.730Z,12.20
2022-10-10T07:34:58.714Z,12.20
2022-10-10T07:36:01.176Z,13.40
2022-10-10T07:37:06.779Z,12.00
2022-10-10T07:38:11.808Z,12.10
2022-10-10T07:39:17.235Z,12.20
2022-10-10T07:40:19.706Z,12.30
2022-10-10T07:41:23.860Z,12.40
2022-10-10T07:42:26.520Z,12.40
2022-10-10T07:43:30.311Z,12.50
2022-10-10T07:44:36.565Z,12.70
2022-10-10T07:45:40.760Z,12.80
2022-10-10T07:46:45.851Z,12.80
2022-10-10T07:47:50.004Z,13.00
2022-10-10T07:48:53.367Z,13.00
2022-10-10T07:49:56.881Z,13.00
2022-10-10T07:51:03.308Z,13.00
2022-10-10T07:52:12.756Z,13.00
2022-10-10T07:53:15.423Z,13.00
2022-10-10T07:54:21.390Z,13.10
2022-10-10T07:55:25.487Z,13.00
2022-10-10T07:56:28.152Z,13.00
2022-10-10T07:57:35.245Z,12.90
2022-10-10T07:58:39.304Z,12.70
2022-10-10T07:59:46.063Z,12.70
2022-10-10T08:00:49.641Z,12.70
2022-10-10T08:01:52.458Z,12.70
2022-10-10T08:02:56.159Z,12.80
2022-10-10T08:03:59.966Z,12.90
2022-10-10T08:05:04.670Z,13.00
2022-10-10T08:06:12.566Z,13.00
2022-10-10T08:07:14.977Z,11.90
2022-10-10T08:08:21.383Z,13.20
2022-10-10T08:09:30.073Z,13.40
2022-10-10T08:10:35.472Z,13.60
2022-10-10T08:11:37.893Z,13.70
2022-10-10T08:12:41.899Z,13.70
2022-10-10T08:13:44.532Z,13.70
2022-10-10T08:14:49.567Z,13.80
2022-10-10T08:15:53.637Z,13.60
2022-10-10T08:16:56.245Z,13.60
2022-10-10T08:17:59.933Z,13.50
2022-10-10T08:19:02.629Z,13.40
2022-10-10T08:20:07.640Z,13.50
2022-10-10T08:21:13.897Z,12.10
2022-10-10T08:22:17.452Z,13.60
2022-10-10T08:23:23.813Z,13.70
2022-10-10T08:24:31.088Z,13.70
2022-10-10T08:25:34.169Z,13.80
2022-10-10T08:26:37.779Z,14.00
2022-10-10T08:27:40.550Z,14.20
2022-10-10T08:28:45.670Z,14.30
2022-10-10T08:29:50.838Z,14.40
2022-10-10T08:30:54.529Z,15.40
2022-10-10T08:31:58.100Z,14.60
2022-10-10T08:33:03.831Z,14.50
2022-10-10T08:34:08.690Z,14.40
2022-10-10T08:35:13.867Z,14.30
2022-10-10T08:36:19.317Z,14.00
2022-10-10T08:37:27.241Z,14.50
2022-10-10T08:38:32.861Z,14.50
2022-10-10T08:39:36.429Z,14.50
2022-10-10T08:40:51.114Z,14.30
2022-10-10T08:41:58.968Z,14.20
2022-10-10T08:43:09.518Z,14.20
2022-10-10T08:44:21.373Z,14.40
2022-10-10T08:45:28.608Z,14.40
2022-10-10T08:46:40.967Z,14.40
2022-10-10T08:47:48.389Z,14.50
2022-10-10T08:48:57.708Z,14.60
2022-10-10T08:50:06.494Z,14.50
2022-10-10T08:51:20.841Z,14.30
2022-10-10T08:52:34.688Z,14.20
2022-10-10T08:53:43.352Z,14.20
2022-10-10T08:54:49.763Z,14.20
2022-10-10T08:55:54.542Z,14.10
2022-10-10T08:57:01.207Z,14.00
2022-10-10T08:58:13.514Z,14.10
2022-10-10T08:59:22.571Z,13.70
2022-10-10T09:00:34.557Z,14.10
2022-10-10T09:02:19.329Z,14.20
2022-10-10T09:03:02.477Z,14.30
2022-10-10T09:04:13.446Z,14.30
2022-10-10T09:05:21.822Z,14.30
2022-10-10T09:06:43.762Z,14.40
2022-10-10T09:08:15.220Z,14.60
2022-10-10T09:09:34.373Z,14.60
2022-10-10T09:10:54.982Z,14.50
2022-10-10T09:12:16.652Z,14.50
2022-10-10T09:13:32.218Z,14.50
2022-10-10T09:14:45.684Z,14.40
2022-10-10T09:15:59.067Z,14.30
2022-10-10T09:17:16.523Z,14.30
2022-10-10T09:18:41.714Z,14.20
2022-10-10T09:20:00.859Z,14.20
2022-10-10T09:21:16.475Z,14.20
2022-10-10T09:22:27.071Z,14.10
2022-10-10T09:23:36.936Z,14.10
2022-10-10T09:24:47.284Z,14.10
2022-10-10T09:25:57.226Z,14.00
2022-10-10T09:27:04.671Z,14.00
2022-10-10T09:28:16.232Z,14.00
2022-10-10T09:29:29.602Z,14.10
2022-10-10T09:30:38.924Z,14.20
2022-10-10T09:31:49.512Z,14.10
2022-10-10T09:33:02.409Z,14.10
2022-10-10T09:34:14.855Z,14.10
2022-10-10T09:35:24.530Z,14.20
2022-10-10T09:36:34.331Z,14.20
2022-10-10T09:37:47.350Z,14.20
2022-10-10T09:38:55.274Z,14.30
2022-10-10T09:40:08.345Z,14.40
2022-10-10T09:41:20.717Z,14.50
2022-10-10T09:42:35.094Z,14.50
2022-10-10T09:43:42.199Z,14.50
2022-10-10T09:44:45.166Z,14.40
2022-10-10T09:45:56.322Z,14.30
2022-10-10T09:47:00.752Z,14.20
2022-10-10T09:48:04.684Z,14.20
2022-10-10T09:49:07.720Z,14.20
2022-10-10T09:50:15.011Z,14.10
2022-10-10T09:51:21.108Z,14.00
2022-10-10T09:52:27.404Z,14.00
2022-10-10T09:53:33.758Z,14.10
2022-10-10T09:54:37.246Z,14.10
2022-10-10T09:55:42.076Z,14.20
2022-10-10T09:56:50.567Z,14.20
2022-10-10T09:57:57.953Z,14.20
2022-10-10T09:59:01.625Z,14.20
2022-10-10T10:00:33.244Z,14.30
2022-10-10T10:01:37.036Z,14.30
2022-10-10T10:02:41.148Z,14.30
2022-10-10T10:03:46.512Z,14.40
2022-10-10T10:04:50.514Z,14.50
2022-10-10T10:05:59.835Z,14.60
2022-10-10T10:07:17.363Z,14.70
2022-10-10T10:08:27.001Z,13.60
2022-10-10T10:09:29.531Z,14.80
2022-10-10T10:10:38.201Z,14.80
2022-10-10T10:11:42.064Z,14.80
2022-10-10T10:12:47.628Z,14.90
2022-10-10T10:13:56.319Z,15.00
2022-10-10T10:15:06.574Z,14.90
2022-10-10T10:16:12.510Z,15.00
2022-10-10T10:17:19.992Z,15.00
2022-10-10T10:18:28.750Z,15.00
2022-10-10T10:19:35.253Z,15.10
2022-10-10T10:20:41.801Z,15.10
2022-10-10T10:21:53.185Z,15.20
2022-10-10T10:22:56.513Z,15.20
2022-10-10T10:24:03.674Z,15.30
2022-10-10T10:25:31.936Z,15.40
2022-10-10T10:26:46.950Z,15.50
2022-10-10T10:27:49.510Z,15.60
2022-10-10T10:28:55.053Z,15.60
2022-10-10T10:30:01.034Z,15.70
2022-10-10T10:31:04.018Z,15.60
2022-10-10T10:32:19.553Z,15.60
2022-10-10T10:33:42.603Z,15.60
2022-10-10T10:35:05.897Z,15.50
2022-10-10T10:36:29.055Z,15.40
2022-10-10T10:37:48.356Z,15.30
2022-10-10T10:38:59.169Z,15.30
2022-10-10T10:40:20.681Z,15.30
2022-10-10T10:41:34.723Z,15.30
2022-10-10T10:42:57.127Z,15.40
2022-10-10T10:44:28.323Z,15.50
2022-10-10T10:45:46.453Z,15.50
2022-10-10T10:47:06.621Z,15.40
2022-10-10T10:48:25.309Z,15.40
2022-10-10T10:49:38.447Z,15.30
2022-10-10T10:50:52.388Z,15.30
2022-10-10T10:52:32.077Z,15.40
2022-10-10T10:53:47.495Z,15.40
2022-10-10T10:55:04.563Z,15.20
2022-10-10T10:56:24.548Z,15.20
2022-10-10T10:57:59.484Z,15.20
2022-10-10T11:00:26.474Z,14.20
2022-10-10T11:01:24.349Z,15.40
2022-10-10T11:02:55.303Z,15.40
2022-10-10T11:05:18.960Z,15.30
2022-10-10T11:05:43.634Z,15.30
2022-10-10T11:07:18.564Z,15.30
2022-10-10T11:08:52.011Z,15.20
2022-10-10T11:10:03.943Z,15.20
2022-10-10T11:11:24.142Z,15.20
2022-10-10T11:12:50.424Z,15.30
2022-10-10T11:14:03.450Z,15.30
2022-10-10T11:15:15.978Z,15.50
2022-10-10T11:18:01.888Z,15.60
2022-10-10T11:19:24.274Z,15.60
2022-10-10T11:20:37.910Z,15.60
2022-10-10T11:21:49.073Z,15.60
2022-10-10T11:22:59.979Z,15.50
2022-10-10T11:24:11.546Z,15.60
2022-10-10T11:25:23.768Z,15.70
2022-10-10T11:26:33.115Z,15.70
2022-10-10T11:27:44.015Z,15.70
2022-10-10T11:28:55.300Z,15.80
2022-10-10T11:30:09.928Z,15.80
2022-10-10T11:31:18.911Z,15.70
2022-10-10T11:32:29.235Z,15.60
2022-10-10T11:33:39.348Z,15.70
2022-10-10T11:34:52.765Z,15.70
2022-10-10T11:36:03.156Z,15.60
2022-10-10T11:37:17.152Z,15.60
2022-10-10T11:38:30.417Z,15.70
2022-10-10T11:39:42.657Z,15.80
2022-10-10T11:40:56.575Z,15.90
2022-10-10T11:42:06.603Z,16.00
2022-10-10T11:43:21.832Z,16.00
2022-10-10T11:44:33.063Z,15.70
2022-10-10T11:45:43.786Z,15.90
2022-10-10T11:46:57.481Z,16.00
2022-10-10T11:48:13.003Z,16.10
2022-10-10T11:49:25.421Z,16.20
2022-10-10T11:50:31.044Z,16.20
2022-10-10T11:51:46.077Z,16.20
2022-10-10T11:52:56.481Z,16.30
2022-10-10T11:54:09.148Z,16.30
2022-10-10T11:55:22.352Z,16.40
2022-10-10T11:56:33.558Z,16.50
2022-10-10T11:57:42.782Z,16.40
2022-10-10T11:58:50.993Z,16.30
2022-10-10T12:00:00.825Z,16.20
2022-10-10T12:01:14.805Z,16.20
2022-10-10T12:02:25.835Z,16.20
2022-10-10T12:03:31.647Z,16.20
2022-10-10T12:04:39.242Z,16.30
2022-10-10T12:05:51.931Z,16.40
2022-10-10T12:07:05.454Z,16.40
2022-10-10T12:08:18.915Z,16.50
2022-10-10T12:09:31.671Z,16.50
2022-10-10T12:10:45.320Z,15.20
2022-10-10T12:11:55.920Z,16.50
2022-10-10T12:13:14.203Z,16.50
2022-10-10T12:14:25.434Z,16.50
2022-10-10T12:15:40.149Z,16.50
2022-10-10T12:16:46.579Z,16.60
2022-10-10T12:17:49.686Z,16.60
2022-10-10T12:18:56.907Z,16.90
2022-10-10T12:20:10.768Z,16.70
2022-10-10T12:21:17.508Z,16.60
2022-10-10T12:22:28.100Z,16.50
2022-10-10T12:23:33.594Z,16.50
2022-10-10T12:24:50.238Z,16.50
2022-10-10T12:26:28.954Z,16.50
2022-10-10T12:28:14.026Z,16.40
2022-10-10T12:30:02.770Z,16.50
2022-10-10T12:31:40.998Z,16.60
2022-10-10T12:33:27.916Z,16.80
2022-10-10T12:35:08.990Z,16.80
2022-10-10T12:37:11.300Z,16.80
2022-10-10T12:39:30.018Z,16.90
2022-10-10T12:43:54.986Z,16.90
2022-10-10T12:44:58.157Z,16.60
2022-10-10T12:46:27.875Z,16.50
2022-10-10T12:48:04.019Z,16.40
2022-10-10T12:49:22.876Z,17.60
2022-10-10T12:50:29.371Z,16.30
2022-10-10T12:51:42.451Z,16.30
2022-10-10T12:52:51.810Z,16.30
2022-10-10T12:54:01.622Z,16.20
2022-10-10T12:55:11.443Z,16.30
2022-10-10T12:56:14.874Z,16.20
2022-10-10T12:57:28.865Z,16.20
2022-10-10T12:58:35.170Z,16.10
2022-10-10T12:59:40.395Z,16.10
2022-10-10T13:00:47.773Z,16.10
2022-10-10T13:01:56.708Z,16.20
2022-10-10T13:03:05.902Z,16.20
2022-10-10T13:04:08.931Z,16.30
2022-10-10T13:05:17.369Z,16.30
2022-10-10T13:06:37.024Z,16.30
2022-10-10T13:07:41.328Z,16.10
2022-10-10T13:08:47.187Z,16.00
2022-10-10T13:09:56.256Z,16.00
2022-10-10T13:11:06.076Z,16.10
2022-10-10T13:12:24.464Z,16.00
2022-10-10T13:13:26.977Z,16.00
2022-10-10T13:14:40.464Z,16.00
2022-10-10T13:15:54.351Z,16.00
2022-10-10T13:16:57.040Z,16.10
2022-10-10T13:18:00.897Z,16.10
2022-10-10T13:19:03.586Z,16.10
2022-10-10T13:20:26.973Z,16.10
2022-10-10T13:21:34.921Z,16.10
2022-10-10T13:22:38.972Z,16.10
2022-10-10T13:25:13.443Z,17.70
2022-10-10T13:26:23.070Z,18.00
2022-10-10T13:27:31.530Z,16.10
2022-10-10T13:28:34.737Z,16.10
2022-10-10T13:29:42.022Z,16.10
2022-10-10T13:30:46.693Z,16.10
2022-10-10T13:31:50.336Z,16.20
2022-10-10T13:32:56.821Z,16.30
2022-10-10T13:34:02.968Z,16.30
2022-10-10T13:35:19.044Z,14.70
2022-10-10T13:36:23.063Z,16.10
2022-10-10T13:37:28.374Z,16.10
2022-10-10T13:38:31.706Z,16.10
2022-10-10T13:39:40.525Z,16.10
2022-10-10T13:40:47.160Z,16.10
2022-10-10T13:41:50.576Z,16.10
2022-10-10T13:42:56.971Z,17.00
2022-10-10T13:44:00.519Z,16.00
2022-10-10T13:45:31.026Z,16.00
2022-10-10T13:46:36.493Z,16.10
2022-10-10T13:47:52.434Z,16.20
2022-10-10T13:48:57.358Z,16.30
2022-10-10T13:50:04.546Z,16.40
2022-10-10T13:51:11.246Z,16.60
2022-10-10T13:52:24.153Z,16.50
2022-10-10T13:53:35.835Z,16.40
2022-10-10T13:54:45.064Z,16.40
2022-10-10T13:55:49.501Z,16.30
2022-10-10T13:56:53.318Z,17.20
2022-10-10T13:58:01.463Z,16.20
2022-10-10T13:59:14.210Z,16.20
2022-10-10T14:00:19.002Z,16.30
2022-10-10T14:01:35.619Z,16.20
2022-10-10T14:02:41.718Z,16.20
2022-10-10T14:03:49.064Z,16.30
2022-10-10T14:04:55.354Z,16.30
2022-10-10T14:05:58.809Z,16.40
2022-10-10T14:07:07.667Z,17.30
2022-10-10T14:08:19.044Z,16.30
2022-10-10T14:09:30.021Z,16.30
2022-10-10T14:10:36.140Z,16.30
2022-10-10T14:11:43.494Z,16.30
2022-10-10T14:12:54.215Z,15.50
2022-10-10T14:14:07.875Z,16.20
2022-10-10T14:15:35.179Z,16.20
2022-10-10T14:16:38.758Z,16.10
2022-10-10T14:17:42.648Z,16.00
2022-10-10T14:18:46.460Z,16.00
2022-10-10T14:19:51.363Z,15.90
2022-10-10T14:20:56.557Z,15.90
2022-10-10T14:22:02.149Z,15.90
2022-10-10T14:23:05.693Z,15.90
2022-10-10T14:24:09.313Z,15.90
2022-10-10T14:25:13.171Z,16.00
2022-10-10T14:26:20.628Z,15.90
2022-10-10T14:27:28.244Z,15.90
2022-10-10T14:28:33.748Z,14.90
2022-10-10T14:29:38.869Z,15.80
2022-10-10T14:30:41.489Z,15.60
2022-10-10T14:31:46.443Z,15.70
2022-10-10T14:32:50.130Z,15.60
2022-10-10T14:33:52.555Z,15.60
2022-10-10T14:34:56.270Z,15.70
2022-10-10T14:36:00.695Z,15.60
2022-10-10T14:37:04.441Z,15.70
2022-10-10T14:38:07.650Z,15.70
2022-10-10T14:39:15.981Z,15.70
2022-10-10T14:40:27.360Z,15.70
2022-10-10T14:41:31.569Z,15.70
2022-10-10T14:42:37.361Z,15.70
2022-10-10T14:43:44.840Z,15.70
2022-10-10T14:44:50.031Z,15.60
2022-10-10T14:45:54.647Z,15.60
2022-10-10T14:46:58.438Z,15.60
2022-10-10T14:48:01.417Z,17.10
2022-10-10T14:49:09.654Z,15.60
2022-10-10T14:50:20.134Z,15.50
2022-10-10T14:51:34.445Z,15.50
2022-10-10T14:52:41.577Z,15.50
2022-10-10T14:53:45.169Z,15.40
2022-10-10T14:55:17.212Z,15.40